createdAt,value
2023-04-05T00:01:40.342Z,2.10
2023-04-05T00:04:08.165Z,2.20
2023-04-05T00:06:35.078Z,2.20
2023-04-05T00:09:03.923Z,2.20
2023-04-05T00:11:32.027Z,2.10
2023-04-05T00:14:02.256Z,2.10
2023-04-05T00:16:29.311Z,2.00
2023-04-05T00:19:00.132Z,1.90
2023-04-05T00:21:27.171Z,1.80
2023-04-05T00:23:55.518Z,1.80
2023-04-05T00:26:22.743Z,1.90
2023-04-05T00:28:54.175Z,1.80
2023-04-05T00:31:21.424Z,1.80
2023-04-05T00:33:48.140Z,1.70
2023-04-05T00:36:19.187Z,1.60
2023-04-05T00:38:46.587Z,1.60
2023-04-05T00:41:13.768Z,1.60
2023-04-05T00:43:41.330Z,1.50
2023-04-05T00:46:08.178Z,1.50
2023-04-05T00:48:38.422Z,1.50
2023-04-05T00:51:09.609Z,1.50
2023-04-05T00:53:37.875Z,1.50
2023-04-05T00:56:04.830Z,1.60
2023-04-05T00:58:31.875Z,1.60
2023-04-05T01:01:06.499Z,1.70
2023-04-05T01:03:35.426Z,1.80
2023-04-05T01:06:48.757Z,1.80
2023-04-05T01:09:32.245Z,1.80
2023-04-05T01:12:01.374Z,1.80
2023-04-05T01:14:28.391Z,1.90
2023-04-05T01:16:58.453Z,1.80
2023-04-05T01:19:29.535Z,1.80
2023-04-05T01:22:16.693Z,1.90
2023-04-05T01:25:02.686Z,1.80
2023-04-05T01:27:57.818Z,1.70
2023-04-05T01:30:32.799Z,1.50
2023-04-05T01:33:02.839Z,1.30
2023-04-05T01:35:35.143Z,1.10
2023-04-05T01:38:03.858Z,1.00
2023-04-05T01:40:32.014Z,0.90
2023-04-05T01:43:02.468Z,0.90
2023-04-05T01:45:31.491Z,0.80
2023-04-05T01:47:58.893Z,0.80
2023-04-05T01:50:25.982Z,0.80
2023-04-05T01:52:53.217Z,0.80
2023-04-05T01:55:20.522Z,0.80
2023-04-05T01:57:47.521Z,0.80
2023-04-05T02:00:14.327Z,0.90
2023-04-05T02:02:41.495Z,0.90
2023-04-05T02:05:09.718Z,0.90
2023-04-05T02:07:36.791Z,0.90
2023-04-05T02:10:04.846Z,1.00
2023-04-05T02:12:32.174Z,1.00
2023-04-05T02:14:59.190Z,1.00
2023-04-05T02:17:26.167Z,1.00
2023-04-05T02:19:53.229Z,0.90
2023-04-05T02:22:21.309Z,0.80
2023-04-05T02:24:48.957Z,0.80
2023-04-05T02:27:15.773Z,0.80
2023-04-05T02:29:42.778Z,0.80
2023-04-05T02:32:10.378Z,0.90
2023-04-05T02:34:41.182Z,0.80
2023-04-05T02:37:08.592Z,0.80
2023-04-05T02:39:35.961Z,0.70
2023-04-05T02:42:03.490Z,0.60
2023-04-05T02:44:30.942Z,0.60
2023-04-05T02:46:58.340Z,0.50
2023-04-05T02:49:32.265Z,0.40
2023-04-05T02:52:02.164Z,0.40
2023-04-05T02:54:29.072Z,0.50
2023-04-05T02:57:02.511Z,0.60
2023-04-05T02:59:36.649Z,0.60
2023-04-05T03:02:06.210Z,0.50
2023-04-05T03:04:34.807Z,0.50
2023-04-05T03:07:04.615Z,0.40
2023-04-05T03:09:35.209Z,0.40
2023-04-05T03:12:06.487Z,0.50
2023-04-05T03:14:38.567Z,0.40
2023-04-05T03:17:06.477Z,0.30
2023-04-05T03:19:38.777Z,0.30
2023-04-05T03:22:19.658Z,0.30
2023-04-05T03:24:47.631Z,0.30
2023-04-05T03:27:18.894Z,0.40
2023-04-05T03:30:07.799Z,0.40
2023-04-05T03:32:39.864Z,0.40
2023-04-05T03:35:16.967Z,0.50
2023-04-05T03:37:46.432Z,0.50
2023-04-05T03:40:14.640Z,0.60
2023-04-05T03:42:41.544Z,0.50
2023-04-05T03:45:08.563Z,0.50
2023-04-05T03:47:35.458Z,0.50
2023-04-05T03:50:05.651Z,0.50
2023-04-05T03:52:32.636Z,0.50
2023-04-05T03:55:01.093Z,0.40
2023-04-05T03:57:30.246Z,0.40
2023-04-05T04:00:00.661Z,0.30
2023-04-05T04:02:31.316Z,0.30
2023-04-05T04:04:59.278Z,0.20
2023-04-05T04:07:27.183Z,0.30
2023-04-05T04:09:55.560Z,0.30
2023-04-05T04:12:25.033Z,0.30
2023-04-05T04:14:58.823Z,0.40
2023-04-05T04:17:49.755Z,0.40
2023-04-05T04:20:30.892Z,0.40
2023-04-05T04:23:10.076Z,0.30
2023-04-05T04:26:01.606Z,0.20
2023-04-05T04:28:56.157Z,0.20
2023-04-05T04:31:34.514Z,0.20
2023-04-05T04:34:14.820Z,0.20
2023-04-05T04:37:01.587Z,0.10
2023-04-05T04:39:52.784Z,0.20
2023-04-05T04:42:22.917Z,0.10
2023-04-05T04:45:23.005Z,0.10
2023-04-05T04:48:15.034Z,0.10
2023-04-05T04:50:59.745Z,0.10
2023-04-05T04:53:28.834Z,0.10
2023-04-05T04:55:57.327Z,0.10
2023-04-05T04:58:24.747Z,0.10
2023-04-05T05:01:01.322Z,0.20
2023-04-05T05:03:29.403Z,0.20
2023-04-05T05:05:56.963Z,0.10
2023-04-05T05:08:29.501Z,0.10
2023-04-05T05:10:57.419Z,0.00
2023-04-05T05:13:24.832Z,0.00
2023-04-05T05:15:51.812Z,0.00
2023-04-05T05:18:18.954Z,0.00
2023-04-05T05:20:47.300Z,0.10
2023-04-05T05:23:14.427Z,0.10
2023-04-05T05:25:42.759Z,0.10
2023-04-05T05:28:09.992Z,0.10
2023-04-05T05:30:36.766Z,-0.10
2023-04-05T05:33:04.192Z,-0.20
2023-04-05T05:35:31.126Z,-0.20
2023-04-05T05:37:57.955Z,-0.20
2023-04-05T05:40:26.835Z,-0.20
2023-04-05T05:42:55.577Z,-0.20
2023-04-05T05:45:23.297Z,-0.10
2023-04-05T05:47:50.665Z,-0.10
2023-04-05T05:50:20.544Z,-0.10
2023-04-05T05:52:47.411Z,-0.10
2023-04-05T05:55:14.562Z,0.00
2023-04-05T05:57:41.740Z,0.00
2023-04-05T06:00:10.590Z,0.00
2023-04-05T06:02:41.567Z,0.00
2023-04-05T06:05:08.857Z,0.10
2023-04-05T06:07:37.237Z,0.10
2023-04-05T06:10:06.134Z,0.00
2023-04-05T06:12:32.873Z,0.20
2023-04-05T06:15:01.288Z,0.30
2023-04-05T06:17:28.612Z,0.40
2023-04-05T06:19:55.593Z,0.50
2023-04-05T06:22:23.813Z,0.60
2023-04-05T06:24:50.911Z,0.80
2023-04-05T06:27:17.662Z,0.90
2023-04-05T06:29:44.728Z,1.00
2023-04-05T06:32:11.429Z,1.10
2023-04-05T06:34:38.804Z,1.20
2023-04-05T06:37:06.151Z,1.30
2023-04-05T06:39:33.580Z,1.60
2023-04-05T06:42:01.534Z,1.70
2023-04-05T06:44:37.999Z,1.80
2023-04-05T06:47:05.901Z,1.90
2023-04-05T06:49:33.434Z,1.90
2023-04-05T06:52:01.704Z,2.00
2023-04-05T06:54:29.706Z,2.20
2023-04-05T06:56:57.751Z,2.40
2023-04-05T06:59:25.950Z,2.60
2023-04-05T07:01:53.209Z,2.70
2023-04-05T07:04:20.845Z,2.90
2023-04-05T07:06:48.533Z,3.00
2023-04-05T07:09:15.574Z,3.20
2023-04-05T07:11:43.430Z,3.30
2023-04-05T07:14:10.866Z,3.50
2023-04-05T07:16:38.706Z,3.70
2023-04-05T07:19:07.263Z,3.70
2023-04-05T07:21:34.710Z,3.70
2023-04-05T07:24:06.080Z,3.70
2023-04-05T07:26:36.098Z,3.80
2023-04-05T07:29:04.319Z,4.10
2023-04-05T07:31:31.747Z,4.30
2023-04-05T07:34:00.255Z,4.60
2023-04-05T07:36:28.220Z,4.80
2023-04-05T07:38:57.329Z,4.90
2023-04-05T07:41:28.426Z,5.10
2023-04-05T07:43:55.759Z,5.30
2023-04-05T07:46:22.995Z,5.50
2023-04-05T07:48:52.095Z,5.50
2023-04-05T07:51:19.108Z,5.70
2023-04-05T07:53:45.968Z,5.90
2023-04-05T07:56:14.244Z,6.00
2023-04-05T07:58:41.266Z,6.10
2023-04-05T08:01:09.736Z,6.40
2023-04-05T08:03:37.049Z,6.60
2023-04-05T08:06:33.043Z,6.60
2023-04-05T08:09:00.376Z,6.90
2023-04-05T08:11:27.745Z,7.10
2023-04-05T08:13:54.826Z,7.10
2023-04-05T08:16:21.870Z,7.50
2023-04-05T08:18:48.951Z,7.70
2023-04-05T08:21:16.110Z,7.70
2023-04-05T08:23:43.755Z,7.80
2023-04-05T08:26:12.519Z,7.80
2023-04-05T08:28:39.899Z,7.50
2023-04-05T08:31:07.120Z,7.80
2023-04-05T08:33:34.607Z,8.20
2023-04-05T08:36:08.268Z,8.40
2023-04-05T08:38:35.878Z,8.60
2023-04-05T08:41:19.195Z,8.70
2023-04-05T08:44:02.788Z,8.90
2023-04-05T08:46:32.134Z,8.80
2023-04-05T08:48:59.006Z,8.60
2023-04-05T08:51:28.971Z,8.50
2023-04-05T08:53:56.216Z,8.70
2023-04-05T08:56:28.255Z,9.10
2023-04-05T08:59:05.492Z,9.10
2023-04-05T09:01:33.563Z,9.00
2023-04-05T09:04:02.114Z,8.90
2023-04-05T09:06:29.569Z,9.20
2023-04-05T09:08:58.480Z,9.40
2023-04-05T09:11:26.535Z,9.40
2023-04-05T09:13:53.847Z,9.20
2023-04-05T09:16:21.608Z,9.50
2023-04-05T09:18:49.301Z,9.70
2023-04-05T09:21:17.663Z,10.00
2023-04-05T09:23:54.096Z,10.20
2023-04-05T09:26:22.000Z,10.10
2023-04-05T09:28:51.859Z,10.20
2023-04-05T09:31:32.085Z,10.20
2023-04-05T09:34:01.017Z,10.30
2023-04-05T09:36:28.367Z,10.20
2023-04-05T09:39:08.541Z,10.00
2023-04-05T09:41:36.091Z,10.10
2023-04-05T09:44:02.859Z,10.20
2023-04-05T09:46:34.487Z,10.20
2023-04-05T09:49:02.278Z,10.50
2023-04-05T09:51:33.752Z,10.30
2023-04-05T09:54:07.903Z,10.40
2023-04-05T09:56:37.215Z,10.50
2023-04-05T09:59:12.083Z,10.80
2023-04-05T10:01:41.315Z,11.00
2023-04-05T10:04:08.801Z,10.90
2023-04-05T10:06:39.011Z,11.10
2023-04-05T10:09:07.017Z,11.10
2023-04-05T10:11:34.829Z,11.10
2023-04-05T10:14:03.869Z,11.30
2023-04-05T10:16:36.840Z,11.40
2023-04-05T10:19:06.195Z,11.00
2023-04-05T10:21:46.471Z,11.30
2023-04-05T10:36:24.592Z,11.70
2023-04-05T10:39:16.227Z,11.80
2023-04-05T10:41:57.970Z,11.60
2023-04-05T11:10:51.347Z,13.20
2023-04-05T11:13:54.754Z,13.60
2023-04-05T11:24:58.675Z,14.80
2023-04-05T11:27:39.599Z,15.60
2023-04-05T11:30:58.499Z,14.10
2023-04-05T11:33:40.666Z,15.00
2023-04-05T11:45:43.909Z,16.30
2023-04-05T11:48:11.817Z,16.20
2023-04-05T11:50:39.228Z,15.70
2023-04-05T11:53:16.436Z,15.20
2023-04-05T11:55:50.437Z,15.10
2023-04-05T11:58:24.383Z,15.20
2023-04-05T12:01:11.367Z,15.50
2023-04-05T12:03:38.429Z,15.30
2023-04-05T12:06:06.384Z,15.90
2023-04-05T12:08:40.374Z,16.40
2023-04-05T12:11:07.953Z,16.60
2023-04-05T12:13:43.709Z,16.40
2023-04-05T12:16:10.469Z,16.30
2023-04-05T12:18:37.401Z,16.50
2023-04-05T12:21:13.312Z,16.90
2023-04-05T12:23:40.546Z,17.20
2023-04-05T12:26:07.807Z,17.20
2023-04-05T12:28:57.296Z,17.10
2023-04-05T12:31:39.946Z,17.80
2023-04-05T12:34:06.850Z,18.10
2023-04-05T12:36:33.567Z,17.60
2023-04-05T12:39:00.836Z,18.10
2023-04-05T12:41:29.642Z,19.00
2023-04-05T12:44:05.139Z,18.60
2023-04-05T12:46:41.978Z,18.10
2023-04-05T12:49:15.321Z,18.20
2023-04-05T12:51:46.136Z,18.20
2023-04-05T12:54:21.483Z,17.80
2023-04-05T12:56:50.597Z,17.50
2023-04-05T12:59:17.393Z,17.40
2023-04-05T13:01:44.204Z,16.60
2023-04-05T13:06:40.652Z,15.30
2023-04-05T13:09:07.473Z,14.60
2023-04-05T13:11:34.188Z,14.20
2023-04-05T13:14:00.873Z,13.80
2023-04-05T13:16:27.866Z,13.60
2023-04-05T13:18:54.692Z,13.50
2023-04-05T13:21:21.342Z,13.20
2023-04-05T13:23:48.009Z,13.10
2023-04-05T13:26:14.673Z,12.90
2023-04-05T13:28:41.336Z,12.80
2023-04-05T13:31:08.292Z,12.70
2023-04-05T13:33:35.277Z,12.50
2023-04-05T13:36:01.989Z,12.50
2023-04-05T13:38:28.725Z,12.40
2023-04-05T13:40:55.626Z,12.40
2023-04-05T13:43:22.499Z,12.30
2023-04-05T13:45:49.386Z,12.30
2023-04-05T13:48:16.153Z,12.20
2023-04-05T13:50:42.946Z,12.10
2023-04-05T13:53:09.749Z,12.10
2023-04-05T13:55:36.844Z,12.10
2023-04-05T13:58:03.546Z,12.20
2023-04-05T14:00:30.206Z,12.20
2023-04-05T14:02:56.958Z,12.00
2023-04-05T14:05:23.755Z,12.00
2023-04-05T14:07:50.551Z,12.00
2023-04-05T14:10:17.725Z,12.00
2023-04-05T14:12:44.435Z,11.90
2023-04-05T14:15:11.603Z,12.00
2023-04-05T14:17:38.402Z,11.90
2023-04-05T14:20:06.499Z,12.00
2023-04-05T14:22:33.204Z,12.10
2023-04-05T14:24:59.938Z,12.00
2023-04-05T14:27:28.279Z,12.00
2023-04-05T14:29:57.013Z,11.90
2023-04-05T14:32:27.050Z,11.80
2023-04-05T14:34:53.793Z,11.80
2023-04-05T14:37:20.863Z,11.80
2023-04-05T14:39:47.539Z,11.80
2023-04-05T14:42:14.277Z,11.70
2023-04-05T14:44:41.000Z,11.50
2023-04-05T14:47:07.730Z,11.60
2023-04-05T14:49:34.431Z,11.60
2023-04-05T14:52:02.272Z,11.60
2023-04-05T14:54:29.268Z,11.60
2023-04-05T14:56:55.953Z,11.60
2023-04-05T14:59:22.844Z,11.60
2023-04-05T15:01:49.709Z,11.50
2023-04-05T15:04:16.383Z,11.40
2023-04-05T15:06:43.121Z,11.50
2023-04-05T15:09:09.838Z,11.40
2023-04-05T15:11:39.040Z,11.50
2023-04-05T15:14:07.440Z,11.50
2023-04-05T15:16:34.461Z,11.60
2023-04-05T15:19:01.175Z,11.50
2023-04-05T15:21:27.887Z,11.50
2023-04-05T15:23:54.603Z,11.50
2023-04-05T15:26:21.864Z,11.40
2023-04-05T15:28:48.609Z,11.40
2023-04-05T15:31:15.366Z,11.40
2023-04-05T15:33:42.122Z,11.40
2023-04-05T15:36:08.910Z,11.40
2023-04-05T15:38:35.623Z,11.40
2023-04-05T15:41:02.322Z,11.30
2023-04-05T15:43:30.356Z,11.30
2023-04-05T15:45:57.119Z,11.30
2023-04-05T15:48:23.817Z,11.30
2023-04-05T15:50:50.515Z,11.20
2023-04-05T15:53:17.445Z,11.20
2023-04-05T15:55:44.112Z,11.10
2023-04-05T15:58:10.982Z,11.20
2023-04-05T16:00:37.936Z,11.10
2023-04-05T16:03:04.727Z,11.10
2023-04-05T16:05:31.583Z,11.10
2023-04-05T16:07:59.371Z,11.10
2023-04-05T16:10:26.110Z,11.10
2023-04-05T16:12:54.029Z,11.00
2023-04-05T16:15:20.788Z,11.10
2023-04-05T16:17:47.491Z,11.10
2023-04-05T16:20:14.301Z,11.00
2023-04-05T16:22:41.379Z,11.00
2023-04-05T16:25:08.300Z,11.00
2023-04-05T16:27:36.926Z,10.90
2023-04-05T16:30:03.719Z,10.90
2023-04-05T16:32:30.443Z,10.90
2023-04-05T16:34:57.144Z,10.80
2023-04-05T16:37:23.926Z,10.90
2023-04-05T16:39:50.629Z,10.80
2023-04-05T16:42:17.313Z,10.70
2023-04-05T16:44:44.070Z,10.70
2023-04-05T16:47:10.887Z,10.70
2023-04-05T16:49:40.142Z,10.70
2023-04-05T16:52:07.173Z,10.70
2023-04-05T16:54:33.869Z,10.70
2023-04-05T16:57:00.829Z,10.70
2023-04-05T16:59:27.675Z,10.70
2023-04-05T17:01:54.372Z,10.60
2023-04-05T17:04:21.182Z,10.60
2023-04-05T17:06:47.903Z,10.60
2023-04-05T17:09:15.048Z,10.60
2023-04-05T17:11:41.764Z,10.60
2023-04-05T17:14:08.458Z,10.70
2023-04-05T17:16:35.177Z,10.70
2023-04-05T17:19:02.113Z,10.70
2023-04-05T17:21:29.071Z,10.60
2023-04-05T17:23:55.813Z,10.50
2023-04-05T17:26:26.388Z,10.50
2023-04-05T17:28:53.097Z,10.50
2023-04-05T17:31:19.825Z,10.50
2023-04-05T17:33:48.727Z,10.40
2023-04-05T17:36:16.689Z,10.30
2023-04-05T17:38:44.276Z,10.20
2023-04-05T17:41:11.032Z,10.20
2023-04-05T17:43:37.841Z,10.10
2023-04-05T17:46:04.852Z,10.00
2023-04-05T17:48:32.839Z,10.00
2023-04-05T17:51:04.626Z,9.90
2023-04-05T17:53:31.345Z,9.90
2023-04-05T17:55:58.192Z,9.80
2023-04-05T17:58:24.972Z,9.80
2023-04-05T18:00:54.434Z,9.80
2023-04-05T18:03:21.586Z,9.80
2023-04-05T18:05:54.538Z,9.70
2023-04-05T18:08:21.520Z,9.80
2023-04-05T18:10:48.253Z,9.70
2023-04-05T18:13:15.755Z,9.70
2023-04-05T18:15:42.521Z,9.60
2023-04-05T18:18:09.371Z,9.60
2023-04-05T18:20:36.266Z,9.60
2023-04-05T18:23:03.029Z,9.50
2023-04-05T18:25:29.737Z,9.60
2023-04-05T18:27:56.450Z,9.50
2023-04-05T18:30:23.223Z,9.40
2023-04-05T18:32:50.638Z,9.30
2023-04-05T18:35:17.548Z,9.30
2023-04-05T18:37:46.382Z,9.30
2023-04-05T18:40:13.167Z,9.30
2023-04-05T18:42:39.941Z,9.30
2023-04-05T18:45:07.623Z,9.30
2023-04-05T18:47:36.347Z,9.30
2023-04-05T18:50:03.506Z,9.20
2023-04-05T18:52:34.004Z,9.20
2023-04-05T18:55:01.358Z,9.20
2023-04-05T18:57:28.525Z,9.20
2023-04-05T18:59:55.537Z,9.10
2023-04-05T19:02:22.480Z,8.90
2023-04-05T19:04:49.567Z,8.90
2023-04-05T19:07:16.377Z,8.70
2023-04-05T19:09:43.128Z,8.60
2023-04-05T19:12:09.840Z,8.50
2023-04-05T19:14:36.706Z,8.50
2023-04-05T19:17:03.502Z,8.50
2023-04-05T19:19:30.676Z,8.40
2023-04-05T19:22:00.003Z,8.40
2023-04-05T19:24:27.318Z,8.20
2023-04-05T19:26:55.176Z,8.20
2023-04-05T19:29:24.351Z,8.10
2023-04-05T19:31:51.512Z,8.10
2023-04-05T19:34:18.947Z,8.00
2023-04-05T19:36:46.243Z,8.00
2023-04-05T19:39:12.970Z,8.00
2023-04-05T19:41:40.286Z,7.90
2023-04-05T19:44:09.379Z,7.90
2023-04-05T19:46:39.292Z,7.90
2023-04-05T19:49:10.947Z,7.80
2023-04-05T19:51:37.759Z,7.70
2023-04-05T19:54:09.358Z,7.70
2023-04-05T19:56:37.345Z,7.70
2023-04-05T19:59:12.552Z,7.60
2023-04-05T20:01:46.997Z,7.60
2023-04-05T20:04:17.185Z,7.60
2023-04-05T20:06:46.285Z,7.60
2023-04-05T20:09:14.861Z,7.50
2023-04-05T20:11:41.569Z,7.40
2023-04-05T20:14:08.383Z,7.30
2023-04-05T20:16:36.151Z,7.20
2023-04-05T20:19:03.745Z,7.30
2023-04-05T20:21:30.833Z,7.20
2023-04-05T20:23:58.038Z,7.10
2023-04-05T20:26:30.220Z,7.00
2023-04-05T20:29:01.299Z,7.00
2023-04-05T20:31:32.535Z,6.90
2023-04-05T20:34:06.716Z,6.80
2023-04-05T20:36:34.417Z,6.70
2023-04-05T20:39:01.899Z,6.60
2023-04-05T20:41:29.062Z,6.60
2023-04-05T20:43:56.452Z,6.40
2023-04-05T20:46:23.384Z,6.40
2023-04-05T20:48:50.980Z,6.30
2023-04-05T20:51:18.436Z,6.20
2023-04-05T20:53:45.223Z,6.10
2023-04-05T20:56:12.889Z,6.10
2023-04-05T20:58:39.892Z,6.10
2023-04-05T21:01:07.478Z,6.00
2023-04-05T21:03:36.722Z,6.00
2023-04-05T21:06:03.795Z,6.00
2023-04-05T21:08:30.770Z,5.90
2023-04-05T21:10:58.501Z,5.80
2023-04-05T21:13:27.802Z,5.70
2023-04-05T21:15:55.121Z,5.70
2023-04-05T21:18:23.822Z,5.50
2023-04-05T21:20:51.774Z,5.50
2023-04-05T21:23:23.063Z,5.40
2023-04-05T21:25:49.933Z,5.40
2023-04-05T21:28:16.737Z,5.30
2023-04-05T21:30:43.753Z,5.40
2023-04-05T21:33:10.804Z,5.30
2023-04-05T21:35:37.860Z,5.30
2023-04-05T21:38:04.724Z,5.10
2023-04-05T21:40:31.720Z,5.10
2023-04-05T21:43:13.629Z,4.90
2023-04-05T21:45:40.593Z,4.90
2023-04-05T21:48:07.396Z,4.80
2023-04-05T21:50:34.672Z,4.70
2023-04-05T21:53:01.895Z,4.90
2023-04-05T21:55:28.608Z,4.80
2023-04-05T21:57:55.381Z,4.70
2023-04-05T22:00:22.306Z,4.60
2023-04-05T22:02:49.075Z,4.80
2023-04-05T22:05:29.384Z,5.00
2023-04-05T22:08:01.371Z,5.00
2023-04-05T22:10:28.545Z,5.00
2023-04-05T22:12:55.450Z,5.00
2023-04-05T22:15:22.534Z,4.80
2023-04-05T22:17:49.264Z,4.60
2023-04-05T22:20:16.081Z,4.60
2023-04-05T22:22:43.071Z,4.70
2023-04-05T22:25:10.039Z,4.50
2023-04-05T22:27:37.396Z,4.50
2023-04-05T22:30:04.749Z,4.40
2023-04-05T22:32:31.546Z,4.50
2023-04-05T22:34:58.376Z,4.40
2023-04-05T22:37:25.188Z,4.50
2023-04-05T22:39:51.909Z,4.30
2023-04-05T22:42:18.674Z,4.20
2023-04-05T22:44:45.637Z,4.10
2023-04-05T22:47:12.321Z,4.20
2023-04-05T22:49:39.052Z,4.40
2023-04-05T22:52:06.169Z,4.40
2023-04-05T22:54:33.572Z,4.60
2023-04-05T22:57:00.426Z,4.60
2023-04-05T22:59:27.255Z,4.50
2023-04-05T23:01:53.970Z,4.60
2023-04-05T23:04:21.475Z,4.60
2023-04-05T23:06:48.561Z,4.50
2023-04-05T23:09:15.264Z,4.40
2023-04-05T23:11:42.884Z,4.50
2023-04-05T23:14:09.865Z,4.60
2023-04-05T23:16:36.757Z,4.90
2023-04-05T23:19:03.739Z,5.00
2023-04-05T23:21:31.091Z,5.10
2023-04-05T23:23:57.871Z,5.00
2023-04-05T23:26:24.868Z,5.00
2023-04-05T23:28:51.638Z,5.10
2023-04-05T23:31:19.248Z,5.00
2023-04-05T23:33:45.962Z,4.80
2023-04-05T23:36:12.716Z,4.70
2023-04-05T23:38:39.509Z,4.50
2023-04-05T23:41:06.895Z,4.50
2023-04-05T23:43:33.629Z,4.50
2023-04-05T23:46:00.670Z,4.40
2023-04-05T23:48:27.405Z,4.30
2023-04-05T23:50:54.126Z,4.00
2023-04-05T23:53:20.977Z,4.00
2023-04-05T23:55:49.317Z,4.20
2023-04-05T23:58:16.545Z,4.10
